sensor_id;sensor_type;location;lat;lon;timestamp;temperature;humidity
20496;DHT22;10406;54.132;17.968;2022-09-03T00:00:12;9.10;99.90
20496;DHT22;10406;54.132;17.968;2022-09-03T00:05:37;9.00;99.90
20496;DHT22;10406;54.132;17.968;2022-09-03T00:11:06;8.90;99.90
20496;DHT22;10406;54.132;17.968;2022-09-03T00:16:41;8.90;99.90
20496;DHT22;10406;54.132;17.968;2022-09-03T00:22:07;9.00;99.90
20496;DHT22;10406;54.132;17.968;2022-09-03T00:27:35;9.20;99.90
20496;DHT22;10406;54.132;17.968;2022-09-03T00:33:02;9.40;99.90
20496;DHT22;10406;54.132;17.968;2022-09-03T00:38:28;9.60;99.90
20496;DHT22;10406;54.132;17.968;2022-09-03T00:44:09;9.90;99.90
20496;DHT22;10406;54.132;17.968;2022-09-03T00:49:45;10.10;99.90
20496;DHT22;10406;54.132;17.968;2022-09-03T00:55:20;10.10;99.90
20496;DHT22;10406;54.132;17.968;2022-09-03T01:00:45;10.30;99.90
20496;DHT22;10406;54.132;17.968;2022-09-03T01:06:17;10.30;99.90
20496;DHT22;10406;54.132;17.968;2022-09-03T01:11:53;10.30;99.90
20496;DHT22;10406;54.132;17.968;2022-09-03T01:17:24;10.30;99.90
20496;DHT22;10406;54.132;17.968;2022-09-03T01:28:53;10.10;99.90
20496;DHT22;10406;54.132;17.968;2022-09-03T01:34:28;10.00;99.90
20496;DHT22;10406;54.132;17.968;2022-09-03T01:40:00;9.90;99.90
20496;DHT22;10406;54.132;17.968;2022-09-03T01:45:39;9.90;99.90
20496;DHT22;10406;54.132;17.968;2022-09-03T01:51:15;10.00;99.90
20496;DHT22;10406;54.132;17.968;2022-09-03T01:57:00;10.10;99.90
20496;DHT22;10406;54.132;17.968;2022-09-03T02:02:32;10.10;99.90
20496;DHT22;10406;54.132;17.968;2022-09-03T02:07:56;10.20;99.90
20496;DHT22;10406;54.132;17.968;2022-09-03T02:13:22;10.20;99.90
20496;DHT22;10406;54.132;17.968;2022-09-03T02:18:50;10.20;99.90
20496;DHT22;10406;54.132;17.968;2022-09-03T02:24:11;10.30;99.90
20496;DHT22;10406;54.132;17.968;2022-09-03T02:29:32;10.40;99.90
20496;DHT22;10406;54.132;17.968;2022-09-03T02:34:55;10.40;99.90
20496;DHT22;10406;54.132;17.968;2022-09-03T02:40:16;10.40;99.90
20496;DHT22;10406;54.132;17.968;2022-09-03T02:45:42;10.40;99.90
20496;DHT22;10406;54.132;17.968;2022-09-03T02:51:07;10.50;99.90
20496;DHT22;10406;54.132;17.968;2022-09-03T02:56:29;10.60;99.90
20496;DHT22;10406;54.132;17.968;2022-09-03T03:01:50;10.70;99.90
20496;DHT22;10406;54.132;17.968;2022-09-03T03:07:12;10.70;99.90
20496;DHT22;10406;54.132;17.968;2022-09-03T03:12:33;10.70;99.90
20496;DHT22;10406;54.132;17.968;2022-09-03T03:17:55;10.80;99.90
20496;DHT22;10406;54.132;17.968;2022-09-03T03:23:18;10.90;99.90
20496;DHT22;10406;54.132;17.968;2022-09-03T03:28:39;10.80;99.90
20496;DHT22;10406;54.132;17.968;2022-09-03T03:34:02;11.00;99.90
20496;DHT22;10406;54.132;17.968;2022-09-03T03:39:26;11.10;99.90
20496;DHT22;10406;54.132;17.968;2022-09-03T03:44:47;11.10;99.90
20496;DHT22;10406;54.132;17.968;2022-09-03T03:50:08;11.20;99.90
20496;DHT22;10406;54.132;17.968;2022-09-03T03:55:31;11.20;99.90
20496;DHT22;10406;54.132;17.968;2022-09-03T04:00:52;11.20;99.90
20496;DHT22;10406;54.132;17.968;2022-09-03T04:06:15;11.20;99.90
20496;DHT22;10406;54.132;17.968;2022-09-03T04:11:38;11.10;99.90
20496;DHT22;10406;54.132;17.968;2022-09-03T04:17:00;11.10;99.90
20496;DHT22;10406;54.132;17.968;2022-09-03T04:22:21;11.10;99.90
20496;DHT22;10406;54.132;17.968;2022-09-03T04:27:44;11.20;99.90
20496;DHT22;10406;54.132;17.968;2022-09-03T04:33:05;11.40;99.90
20496;DHT22;10406;54.132;17.968;2022-09-03T04:38:28;11.50;99.90
20496;DHT22;10406;54.132;17.968;2022-09-03T04:43:54;11.70;99.90
20496;DHT22;10406;54.132;17.968;2022-09-03T04:49:15;11.80;99.90
20496;DHT22;10406;54.132;17.968;2022-09-03T04:54:36;11.90;99.90
20496;DHT22;10406;54.132;17.968;2022-09-03T05:00:01;12.00;99.90
20496;DHT22;10406;54.132;17.968;2022-09-03T05:05:22;12.20;99.90
20496;DHT22;10406;54.132;17.968;2022-09-03T05:10:44;12.20;99.90
20496;DHT22;10406;54.132;17.968;2022-09-03T05:16:08;12.20;99.90
20496;DHT22;10406;54.132;17.968;2022-09-03T05:21:29;12.20;99.90
20496;DHT22;10406;54.132;17.968;2022-09-03T05:26:50;12.20;99.90
20496;DHT22;10406;54.132;17.968;2022-09-03T05:32:13;12.30;99.90
20496;DHT22;10406;54.132;17.968;2022-09-03T05:37:36;12.50;99.90
20496;DHT22;10406;54.132;17.968;2022-09-03T05:42:58;12.60;99.90
20496;DHT22;10406;54.132;17.968;2022-09-03T05:48:21;12.70;99.90
20496;DHT22;10406;54.132;17.968;2022-09-03T05:53:44;12.90;99.90
20496;DHT22;10406;54.132;17.968;2022-09-03T05:59:07;13.00;99.90
20496;DHT22;10406;54.132;17.968;2022-09-03T06:04:30;13.30;99.90
20496;DHT22;10406;54.132;17.968;2022-09-03T06:09:52;13.40;99.90
20496;DHT22;10406;54.132;17.968;2022-09-03T06:15:14;13.50;99.90
20496;DHT22;10406;54.132;17.968;2022-09-03T06:20:37;13.70;99.90
20496;DHT22;10406;54.132;17.968;2022-09-03T06:26:03;14.20;99.90
20496;DHT22;10406;54.132;17.968;2022-09-03T06:31:29;14.00;99.90
20496;DHT22;10406;54.132;17.968;2022-09-03T06:37:04;13.90;99.90
20496;DHT22;10406;54.132;17.968;2022-09-03T06:42:26;13.90;99.90
20496;DHT22;10406;54.132;17.968;2022-09-03T06:47:48;14.00;99.90
20496;DHT22;10406;54.132;17.968;2022-09-03T06:53:11;14.10;99.90
20496;DHT22;10406;54.132;17.968;2022-09-03T06:59:06;14.20;99.90
20496;DHT22;10406;54.132;17.968;2022-09-03T07:04:34;14.30;99.90
20496;DHT22;10406;54.132;17.968;2022-09-03T07:09:56;14.40;99.90
20496;DHT22;10406;54.132;17.968;2022-09-03T07:15:20;14.50;99.90
20496;DHT22;10406;54.132;17.968;2022-09-03T07:20:57;14.70;99.90
20496;DHT22;10406;54.132;17.968;2022-09-03T07:26:23;14.90;99.90
20496;DHT22;10406;54.132;17.968;2022-09-03T07:31:44;15.00;99.90
20496;DHT22;10406;54.132;17.968;2022-09-03T07:37:05;15.00;99.90
20496;DHT22;10406;54.132;17.968;2022-09-03T07:42:40;15.10;99.90
20496;DHT22;10406;54.132;17.968;2022-09-03T07:48:23;15.20;99.90
20496;DHT22;10406;54.132;17.968;2022-09-03T07:53:46;15.30;99.90
20496;DHT22;10406;54.132;17.968;2022-09-03T07:59:08;15.30;99.90
20496;DHT22;10406;54.132;17.968;2022-09-03T08:04:30;15.40;99.90
20496;DHT22;10406;54.132;17.968;2022-09-03T08:09:52;15.50;99.90
20496;DHT22;10406;54.132;17.968;2022-09-03T08:15:23;15.70;99.90
20496;DHT22;10406;54.132;17.968;2022-09-03T08:20:46;15.90;99.90
20496;DHT22;10406;54.132;17.968;2022-09-03T08:26:08;15.90;99.90
20496;DHT22;10406;54.132;17.968;2022-09-03T08:31:33;15.90;99.90
20496;DHT22;10406;54.132;17.968;2022-09-03T08:37:04;15.90;99.90
20496;DHT22;10406;54.132;17.968;2022-09-03T08:43:00;16.00;99.90
20496;DHT22;10406;54.132;17.968;2022-09-03T08:48:35;16.30;99.90
20496;DHT22;10406;54.132;17.968;2022-09-03T08:54:25;16.20;99.90
20496;DHT22;10406;54.132;17.968;2022-09-03T08:59:53;16.00;99.90
20496;DHT22;10406;54.132;17.968;2022-09-03T09:05:23;15.90;99.90
20496;DHT22;10406;54.132;17.968;2022-09-03T09:10:51;15.90;99.90
20496;DHT22;10406;54.132;17.968;2022-09-03T09:16:26;16.10;99.90
20496;DHT22;10406;54.132;17.968;2022-09-03T09:21:55;16.40;99.90
20496;DHT22;10406;54.132;17.968;2022-09-03T09:27:21;16.90;99.90
20496;DHT22;10406;54.132;17.968;2022-09-03T09:32:43;16.90;99.90
20496;DHT22;10406;54.132;17.968;2022-09-03T09:38:29;17.00;99.90
20496;DHT22;10406;54.132;17.968;2022-09-03T09:49:52;17.50;99.90
20496;DHT22;10406;54.132;17.968;2022-09-03T09:55:32;18.20;99.90
20496;DHT22;10406;54.132;17.968;2022-09-03T10:01:09;18.50;99.90
20496;DHT22;10406;54.132;17.968;2022-09-03T10:06:35;18.80;99.90
20496;DHT22;10406;54.132;17.968;2022-09-03T10:12:21;18.90;99.90
20496;DHT22;10406;54.132;17.968;2022-09-03T10:18:35;18.80;99.90
20496;DHT22;10406;54.132;17.968;2022-09-03T10:24:24;18.80;99.90
20496;DHT22;10406;54.132;17.968;2022-09-03T10:30:18;18.80;99.90
20496;DHT22;10406;54.132;17.968;2022-09-03T10:35:48;18.60;99.90
20496;DHT22;10406;54.132;17.968;2022-09-03T10:41:42;18.50;99.90
20496;DHT22;10406;54.132;17.968;2022-09-03T10:47:31;18.40;99.90
20496;DHT22;10406;54.132;17.968;2022-09-03T10:53:09;18.30;99.90
20496;DHT22;10406;54.132;17.968;2022-09-03T10:58:48;18.60;99.90
20496;DHT22;10406;54.132;17.968;2022-09-03T11:04:25;19.00;99.90
20496;DHT22;10406;54.132;17.968;2022-09-03T11:10:12;19.50;99.90
20496;DHT22;10406;54.132;17.968;2022-09-03T11:15:50;19.70;99.90
20496;DHT22;10406;54.132;17.968;2022-09-03T11:21:18;19.10;99.90
20496;DHT22;10406;54.132;17.968;2022-09-03T11:26:43;18.60;99.90
20496;DHT22;10406;54.132;17.968;2022-09-03T11:32:08;18.30;99.90
20496;DHT22;10406;54.132;17.968;2022-09-03T11:37:32;18.30;99.90
20496;DHT22;10406;54.132;17.968;2022-09-03T11:43:09;18.40;99.90
20496;DHT22;10406;54.132;17.968;2022-09-03T11:49:09;18.60;99.90
20496;DHT22;10406;54.132;17.968;2022-09-03T11:54:50;19.20;99.90
20496;DHT22;10406;54.132;17.968;2022-09-03T12:00:36;19.10;99.90
20496;DHT22;10406;54.132;17.968;2022-09-03T12:06:23;18.60;99.90
20496;DHT22;10406;54.132;17.968;2022-09-03T12:12:00;18.00;99.90
20496;DHT22;10406;54.132;17.968;2022-09-03T12:17:30;17.60;99.90
20496;DHT22;10406;54.132;17.968;2022-09-03T12:22:53;17.50;99.90
20496;DHT22;10406;54.132;17.968;2022-09-03T12:28:28;17.90;99.90
20496;DHT22;10406;54.132;17.968;2022-09-03T12:34:08;17.80;99.90
20496;DHT22;10406;54.132;17.968;2022-09-03T12:39:50;17.50;99.90
20496;DHT22;10406;54.132;17.968;2022-09-03T12:46:17;17.60;99.90
20496;DHT22;10406;54.132;17.968;2022-09-03T12:51:42;18.00;99.90
20496;DHT22;10406;54.132;17.968;2022-09-03T12:57:04;18.50;99.90
20496;DHT22;10406;54.132;17.968;2022-09-03T13:02:52;18.30;99.90
20496;DHT22;10406;54.132;17.968;2022-09-03T13:08:19;17.70;99.90
20496;DHT22;10406;54.132;17.968;2022-09-03T13:13:51;17.50;99.90
20496;DHT22;10406;54.132;17.968;2022-09-03T13:19:21;17.60;99.90
20496;DHT22;10406;54.132;17.968;2022-09-03T13:24:55;17.60;99.90
20496;DHT22;10406;54.132;17.968;2022-09-03T13:30:19;17.20;99.90
20496;DHT22;10406;54.132;17.968;2022-09-03T13:35:46;17.10;99.90
20496;DHT22;10406;54.132;17.968;2022-09-03T13:41:13;17.20;99.90
20496;DHT22;10406;54.132;17.968;2022-09-03T13:46:42;17.30;99.90
20496;DHT22;10406;54.132;17.968;2022-09-03T13:52:12;17.00;99.90
20496;DHT22;10406;54.132;17.968;2022-09-03T13:57:48;16.90;99.90
20496;DHT22;10406;54.132;17.968;2022-09-03T14:03:16;16.90;99.90
20496;DHT22;10406;54.132;17.968;2022-09-03T14:08:52;17.00;99.90
20496;DHT22;10406;54.132;17.968;2022-09-03T14:14:34;17.00;99.90
20496;DHT22;10406;54.132;17.968;2022-09-03T14:20:09;17.10;99.90
20496;DHT22;10406;54.132;17.968;2022-09-03T14:25:33;17.10;99.10
20496;DHT22;10406;54.132;17.968;2022-09-03T14:31:01;16.90;97.40
20496;DHT22;10406;54.132;17.968;2022-09-03T14:36:29;16.70;99.70
20496;DHT22;10406;54.132;17.968;2022-09-03T14:42:12;16.60;99.70
20496;DHT22;10406;54.132;17.968;2022-09-03T14:47:54;16.50;97.10
20496;DHT22;10406;54.132;17.968;2022-09-03T14:53:28;16.30;99.10
20496;DHT22;10406;54.132;17.968;2022-09-03T15:05:09;16.20;97.00
20496;DHT22;10406;54.132;17.968;2022-09-03T15:10:35;16.20;98.40
20496;DHT22;10406;54.132;17.968;2022-09-03T15:16:11;16.30;95.60
20496;DHT22;10406;54.132;17.968;2022-09-03T15:22:00;16.20;94.10
20496;DHT22;10406;54.132;17.968;2022-09-03T15:27:46;16.10;92.60
20496;DHT22;10406;54.132;17.968;2022-09-03T15:33:28;16.50;93.00
20496;DHT22;10406;54.132;17.968;2022-09-03T15:39:01;18.20;87.10
20496;DHT22;10406;54.132;17.968;2022-09-03T15:44:36;18.50;86.20
20496;DHT22;10406;54.132;17.968;2022-09-03T15:50:31;17.30;97.90
20496;DHT22;10406;54.132;17.968;2022-09-03T15:56:18;16.30;94.50
20496;DHT22;10406;54.132;17.968;2022-09-03T16:02:06;16.50;93.80
20496;DHT22;10406;54.132;17.968;2022-09-03T16:08:02;16.00;96.50
20496;DHT22;10406;54.132;17.968;2022-09-03T16:13:48;15.70;99.90
20496;DHT22;10406;54.132;17.968;2022-09-03T16:19:30;15.50;99.90
20496;DHT22;10406;54.132;17.968;2022-09-03T16:25:13;15.30;99.90
20496;DHT22;10406;54.132;17.968;2022-09-03T16:31:01;15.10;99.90
20496;DHT22;10406;54.132;17.968;2022-09-03T16:37:06;15.00;99.90
20496;DHT22;10406;54.132;17.968;2022-09-03T16:42:46;15.00;99.90
20496;DHT22;10406;54.132;17.968;2022-09-03T16:48:26;14.90;99.90
20496;DHT22;10406;54.132;17.968;2022-09-03T16:54:17;14.80;99.90
20496;DHT22;10406;54.132;17.968;2022-09-03T17:07:01;14.20;99.90
20496;DHT22;10406;54.132;17.968;2022-09-03T17:13:22;14.10;99.90
20496;DHT22;10406;54.132;17.968;2022-09-03T17:19:06;13.90;99.90
20496;DHT22;10406;54.132;17.968;2022-09-03T17:24:45;13.80;99.90
20496;DHT22;10406;54.132;17.968;2022-09-03T17:30:37;13.60;99.90
20496;DHT22;10406;54.132;17.968;2022-09-03T17:36:13;13.40;99.90
20496;DHT22;10406;54.132;17.968;2022-09-03T17:42:23;13.10;99.90
20496;DHT22;10406;54.132;17.968;2022-09-03T17:54:58;12.50;99.90
20496;DHT22;10406;54.132;17.968;2022-09-03T18:00:29;11.70;99.90
20496;DHT22;10406;54.132;17.968;2022-09-03T18:05:57;11.70;99.90
20496;DHT22;10406;54.132;17.968;2022-09-03T18:11:33;11.40;99.90
20496;DHT22;10406;54.132;17.968;2022-09-03T18:17:04;11.10;99.90
20496;DHT22;10406;54.132;17.968;2022-09-03T18:22:32;11.00;99.90
20496;DHT22;10406;54.132;17.968;2022-09-03T18:28:15;10.90;99.90
20496;DHT22;10406;54.132;17.968;2022-09-03T18:34:08;10.80;99.90
20496;DHT22;10406;54.132;17.968;2022-09-03T18:39:57;10.50;99.90
20496;DHT22;10406;54.132;17.968;2022-09-03T18:45:42;10.50;99.90
20496;DHT22;10406;54.132;17.968;2022-09-03T18:51:30;10.70;99.90
20496;DHT22;10406;54.132;17.968;2022-09-03T18:57:18;10.90;99.90
20496;DHT22;10406;54.132;17.968;2022-09-03T19:03:15;10.80;99.90
20496;DHT22;10406;54.132;17.968;2022-09-03T19:09:10;10.50;99.90
20496;DHT22;10406;54.132;17.968;2022-09-03T19:15:02;10.30;99.90
20496;DHT22;10406;54.132;17.968;2022-09-03T19:26:37;10.90;99.90
20496;DHT22;10406;54.132;17.968;2022-09-03T19:32:20;10.90;99.90
20496;DHT22;10406;54.132;17.968;2022-09-03T19:38:41;10.90;99.90
20496;DHT22;10406;54.132;17.968;2022-09-03T19:44:50;10.90;99.90
20496;DHT22;10406;54.132;17.968;2022-09-03T19:50:44;11.00;99.90
20496;DHT22;10406;54.132;17.968;2022-09-03T19:56:58;11.00;99.90
20496;DHT22;10406;54.132;17.968;2022-09-03T20:03:18;10.70;99.90
20496;DHT22;10406;54.132;17.968;2022-09-03T20:09:01;10.70;99.90
20496;DHT22;10406;54.132;17.968;2022-09-03T20:14:46;10.40;99.90
20496;DHT22;10406;54.132;17.968;2022-09-03T20:20:41;10.30;99.90
20496;DHT22;10406;54.132;17.968;2022-09-03T20:26:20;10.40;99.90
20496;DHT22;10406;54.132;17.968;2022-09-03T20:31:55;10.30;99.90
20496;DHT22;10406;54.132;17.968;2022-09-03T20:37:39;10.50;99.90
20496;DHT22;10406;54.132;17.968;2022-09-03T20:43:32;10.50;99.90
20496;DHT22;10406;54.132;17.968;2022-09-03T20:55:49;10.50;99.90
20496;DHT22;10406;54.132;17.968;2022-09-03T21:01:25;10.40;99.90
20496;DHT22;10406;54.132;17.968;2022-09-03T21:07:00;10.60;99.90
20496;DHT22;10406;54.132;17.968;2022-09-03T21:12:41;10.70;99.90
20496;DHT22;10406;54.132;17.968;2022-09-03T21:18:17;10.90;99.90
20496;DHT22;10406;54.132;17.968;2022-09-03T21:23:54;10.90;99.90
20496;DHT22;10406;54.132;17.968;2022-09-03T21:29:43;10.90;99.90
20496;DHT22;10406;54.132;17.968;2022-09-03T21:35:46;10.70;99.90
20496;DHT22;10406;54.132;17.968;2022-09-03T21:41:26;10.70;99.90
20496;DHT22;10406;54.132;17.968;2022-09-03T21:47:09;10.70;99.90
20496;DHT22;10406;54.132;17.968;2022-09-03T21:52:40;10.40;99.90
20496;DHT22;10406;54.132;17.968;2022-09-03T21:58:26;10.70;99.90
20496;DHT22;10406;54.132;17.968;2022-09-03T22:04:01;10.80;99.90
20496;DHT22;10406;54.132;17.968;2022-09-03T22:09:34;10.90;99.90
20496;DHT22;10406;54.132;17.968;2022-09-03T22:15:40;10.90;99.90
20496;DHT22;10406;54.132;17.968;2022-09-03T22:21:22;10.80;99.90
20496;DHT22;10406;54.132;17.968;2022-09-03T22:27:04;10.80;99.90
20496;DHT22;10406;54.132;17.968;2022-09-03T22:32:44;11.00;99.90
20496;DHT22;10406;54.132;17.968;2022-09-03T22:44:15;10.90;99.90
20496;DHT22;10406;54.132;17.968;2022-09-03T22:49:45;11.00;99.90
20496;DHT22;10406;54.132;17.968;2022-09-03T22:55:24;11.00;99.90
20496;DHT22;10406;54.132;17.968;2022-09-03T23:00:52;11.10;99.90
20496;DHT22;10406;54.132;17.968;2022-09-03T23:06:36;11.00;99.90
20496;DHT22;10406;54.132;17.968;2022-09-03T23:12:13;11.00;99.90
20496;DHT22;10406;54.132;17.968;2022-09-03T23:17:50;11.00;99.90
20496;DHT22;10406;54.132;17.968;2022-09-03T23:23:27;10.90;99.90
20496;DHT22;10406;54.132;17.968;2022-09-03T23:29:26;10.90;99.90
20496;DHT22;10406;54.132;17.968;2022-09-03T23:34:48;10.90;99.90
20496;DHT22;10406;54.132;17.968;2022-09-03T23:40:30;10.90;99.90
20496;DHT22;10406;54.132;17.968;2022-09-03T23:46:07;10.80;99.90
20496;DHT22;10406;54.132;17.968;2022-09-03T23:51:37;10.90;99.90
20496;DHT22;10406;54.132;17.968;2022-09-03T23:57:10;10.70;99.90
